sensor_id;sensor_type;location;lat;lon;timestamp;P1;durP1;ratioP1;P2;durP2;ratioP2
9712;SDS011;4895;50.926;6.870;2022-08-19T00:00:18;10.27;;;7.47;;
9712;SDS011;4895;50.926;6.870;2022-08-19T00:02:43;9.30;;;7.40;;
9712;SDS011;4895;50.926;6.870;2022-08-19T00:05:11;8.57;;;6.93;;
9712;SDS011;4895;50.926;6.870;2022-08-19T00:07:36;12.27;;;7.67;;
9712;SDS011;4895;50.926;6.870;2022-08-19T00:10:03;10.10;;;7.73;;
9712;SDS011;4895;50.926;6.870;2022-08-19T00:12:29;14.57;;;8.23;;
9712;SDS011;4895;50.926;6.870;2022-08-19T00:14:55;13.63;;;8.83;;
9712;SDS011;4895;50.926;6.870;2022-08-19T00:17:20;12.33;;;8.60;;
9712;SDS011;4895;50.926;6.870;2022-08-19T00:19:46;8.70;;;7.77;;
9712;SDS011;4895;50.926;6.870;2022-08-19T00:22:11;9.30;;;7.60;;
9712;SDS011;4895;50.926;6.870;2022-08-19T00:24:36;12.50;;;7.80;;
9712;SDS011;4895;50.926;6.870;2022-08-19T00:27:03;9.80;;;8.23;;
9712;SDS011;4895;50.926;6.870;2022-08-19T00:29:29;9.30;;;7.13;;
9712;SDS011;4895;50.926;6.870;2022-08-19T00:31:54;10.77;;;9.23;;
9712;SDS011;4895;50.926;6.870;2022-08-19T00:34:21;15.70;;;9.70;;
9712;SDS011;4895;50.926;6.870;2022-08-19T00:36:47;11.33;;;9.03;;
9712;SDS011;4895;50.926;6.870;2022-08-19T00:39:13;13.87;;;10.23;;
9712;SDS011;4895;50.926;6.870;2022-08-19T00:41:40;15.57;;;9.50;;
9712;SDS011;4895;50.926;6.870;2022-08-19T00:44:08;19.30;;;10.53;;
9712;SDS011;4895;50.926;6.870;2022-08-19T00:46:38;15.00;;;9.67;;
9712;SDS011;4895;50.926;6.870;2022-08-19T00:51:48;15.70;;;9.90;;
9712;SDS011;4895;50.926;6.870;2022-08-19T00:54:16;12.70;;;9.10;;
9712;SDS011;4895;50.926;6.870;2022-08-19T00:56:41;14.63;;;9.57;;
9712;SDS011;4895;50.926;6.870;2022-08-19T00:59:07;12.53;;;9.60;;
9712;SDS011;4895;50.926;6.870;2022-08-19T01:01:35;13.23;;;10.43;;
9712;SDS011;4895;50.926;6.870;2022-08-19T01:04:02;16.87;;;10.10;;
9712;SDS011;4895;50.926;6.870;2022-08-19T01:06:27;12.17;;;9.40;;
9712;SDS011;4895;50.926;6.870;2022-08-19T01:08:53;18.53;;;10.70;;
9712;SDS011;4895;50.926;6.870;2022-08-19T01:11:19;18.20;;;11.70;;
9712;SDS011;4895;50.926;6.870;2022-08-19T01:13:45;17.80;;;10.30;;
9712;SDS011;4895;50.926;6.870;2022-08-19T01:16:11;21.17;;;10.43;;
9712;SDS011;4895;50.926;6.870;2022-08-19T01:18:38;18.57;;;12.20;;
9712;SDS011;4895;50.926;6.870;2022-08-19T01:21:08;16.73;;;12.20;;
9712;SDS011;4895;50.926;6.870;2022-08-19T01:23:36;15.63;;;10.80;;
9712;SDS011;4895;50.926;6.870;2022-08-19T01:26:08;19.70;;;11.27;;
9712;SDS011;4895;50.926;6.870;2022-08-19T01:28:39;19.27;;;12.47;;
9712;SDS011;4895;50.926;6.870;2022-08-19T01:31:05;20.10;;;10.97;;
9712;SDS011;4895;50.926;6.870;2022-08-19T01:33:31;25.67;;;13.30;;
9712;SDS011;4895;50.926;6.870;2022-08-19T01:36:07;15.57;;;10.37;;
9712;SDS011;4895;50.926;6.870;2022-08-19T01:38:35;17.80;;;11.80;;
9712;SDS011;4895;50.926;6.870;2022-08-19T01:41:02;18.47;;;11.47;;
9712;SDS011;4895;50.926;6.870;2022-08-19T01:43:28;20.87;;;11.03;;
9712;SDS011;4895;50.926;6.870;2022-08-19T01:45:53;22.27;;;11.60;;
9712;SDS011;4895;50.926;6.870;2022-08-19T01:48:19;20.33;;;11.30;;
9712;SDS011;4895;50.926;6.870;2022-08-19T01:50:44;14.07;;;9.67;;
9712;SDS011;4895;50.926;6.870;2022-08-19T01:53:11;16.33;;;10.67;;
9712;SDS011;4895;50.926;6.870;2022-08-19T01:55:37;18.70;;;10.40;;
9712;SDS011;4895;50.926;6.870;2022-08-19T01:58:04;16.10;;;10.87;;
9712;SDS011;4895;50.926;6.870;2022-08-19T02:00:30;19.10;;;10.90;;
9712;SDS011;4895;50.926;6.870;2022-08-19T02:02:57;16.30;;;11.03;;
9712;SDS011;4895;50.926;6.870;2022-08-19T02:05:22;18.50;;;12.67;;
9712;SDS011;4895;50.926;6.870;2022-08-19T02:07:48;18.90;;;12.63;;
9712;SDS011;4895;50.926;6.870;2022-08-19T02:10:16;17.07;;;11.53;;
9712;SDS011;4895;50.926;6.870;2022-08-19T02:15:18;23.20;;;13.00;;
9712;SDS011;4895;50.926;6.870;2022-08-19T02:17:44;20.73;;;13.93;;
9712;SDS011;4895;50.926;6.870;2022-08-19T02:20:10;26.63;;;15.10;;
9712;SDS011;4895;50.926;6.870;2022-08-19T02:22:37;22.20;;;13.60;;
9712;SDS011;4895;50.926;6.870;2022-08-19T02:25:02;20.00;;;14.50;;
9712;SDS011;4895;50.926;6.870;2022-08-19T02:27:29;18.70;;;13.53;;
9712;SDS011;4895;50.926;6.870;2022-08-19T02:29:55;24.37;;;13.50;;
9712;SDS011;4895;50.926;6.870;2022-08-19T02:32:21;21.63;;;13.80;;
9712;SDS011;4895;50.926;6.870;2022-08-19T02:34:47;18.27;;;13.73;;
9712;SDS011;4895;50.926;6.870;2022-08-19T02:37:13;20.40;;;14.10;;
9712;SDS011;4895;50.926;6.870;2022-08-19T02:39:57;20.03;;;13.80;;
9712;SDS011;4895;50.926;6.870;2022-08-19T02:42:23;29.80;;;16.43;;
9712;SDS011;4895;50.926;6.870;2022-08-19T02:44:49;32.83;;;14.77;;
9712;SDS011;4895;50.926;6.870;2022-08-19T02:47:14;22.43;;;14.90;;
9712;SDS011;4895;50.926;6.870;2022-08-19T02:49:40;24.63;;;14.63;;
9712;SDS011;4895;50.926;6.870;2022-08-19T02:52:05;19.07;;;13.30;;
9712;SDS011;4895;50.926;6.870;2022-08-19T02:54:30;19.60;;;13.90;;
9712;SDS011;4895;50.926;6.870;2022-08-19T02:56:56;17.30;;;14.10;;
9712;SDS011;4895;50.926;6.870;2022-08-19T02:59:21;20.83;;;13.97;;
9712;SDS011;4895;50.926;6.870;2022-08-19T03:01:46;20.47;;;12.53;;
9712;SDS011;4895;50.926;6.870;2022-08-19T03:04:13;16.40;;;11.80;;
9712;SDS011;4895;50.926;6.870;2022-08-19T03:06:41;24.80;;;14.13;;
9712;SDS011;4895;50.926;6.870;2022-08-19T03:09:08;19.60;;;13.60;;
9712;SDS011;4895;50.926;6.870;2022-08-19T03:11:33;17.20;;;12.00;;
9712;SDS011;4895;50.926;6.870;2022-08-19T03:13:59;20.10;;;14.27;;
9712;SDS011;4895;50.926;6.870;2022-08-19T03:16:27;18.30;;;12.70;;
9712;SDS011;4895;50.926;6.870;2022-08-19T03:18:53;19.90;;;11.93;;
9712;SDS011;4895;50.926;6.870;2022-08-19T03:21:22;19.80;;;14.00;;
9712;SDS011;4895;50.926;6.870;2022-08-19T03:23:49;21.67;;;14.10;;
9712;SDS011;4895;50.926;6.870;2022-08-19T03:26:14;24.60;;;14.27;;
9712;SDS011;4895;50.926;6.870;2022-08-19T03:28:40;22.27;;;13.40;;
9712;SDS011;4895;50.926;6.870;2022-08-19T03:31:07;17.57;;;12.60;;
9712;SDS011;4895;50.926;6.870;2022-08-19T03:33:37;22.57;;;12.63;;
9712;SDS011;4895;50.926;6.870;2022-08-19T03:38:32;20.07;;;13.83;;
9712;SDS011;4895;50.926;6.870;2022-08-19T03:40:57;20.27;;;12.80;;
9712;SDS011;4895;50.926;6.870;2022-08-19T03:43:23;18.43;;;12.70;;
9712;SDS011;4895;50.926;6.870;2022-08-19T03:45:49;16.13;;;12.37;;
9712;SDS011;4895;50.926;6.870;2022-08-19T03:48:24;22.13;;;13.43;;
9712;SDS011;4895;50.926;6.870;2022-08-19T03:50:50;18.80;;;12.83;;
9712;SDS011;4895;50.926;6.870;2022-08-19T03:53:15;17.83;;;13.03;;
9712;SDS011;4895;50.926;6.870;2022-08-19T03:55:41;18.80;;;13.00;;
9712;SDS011;4895;50.926;6.870;2022-08-19T03:58:06;17.13;;;12.80;;
9712;SDS011;4895;50.926;6.870;2022-08-19T04:00:31;21.90;;;12.97;;
9712;SDS011;4895;50.926;6.870;2022-08-19T04:02:58;28.70;;;13.37;;
9712;SDS011;4895;50.926;6.870;2022-08-19T04:05:24;19.83;;;11.93;;
9712;SDS011;4895;50.926;6.870;2022-08-19T04:07:49;18.10;;;13.83;;
9712;SDS011;4895;50.926;6.870;2022-08-19T04:10:14;17.67;;;12.97;;
9712;SDS011;4895;50.926;6.870;2022-08-19T04:12:39;18.33;;;12.00;;
9712;SDS011;4895;50.926;6.870;2022-08-19T04:15:05;20.73;;;12.13;;
9712;SDS011;4895;50.926;6.870;2022-08-19T04:17:31;18.83;;;12.73;;
9712;SDS011;4895;50.926;6.870;2022-08-19T04:19:57;21.83;;;13.20;;
9712;SDS011;4895;50.926;6.870;2022-08-19T04:22:23;27.97;;;14.30;;
9712;SDS011;4895;50.926;6.870;2022-08-19T04:24:48;19.40;;;14.67;;
9712;SDS011;4895;50.926;6.870;2022-08-19T04:27:13;23.90;;;14.37;;
9712;SDS011;4895;50.926;6.870;2022-08-19T04:29:39;18.43;;;14.50;;
9712;SDS011;4895;50.926;6.870;2022-08-19T04:32:05;24.23;;;15.43;;
9712;SDS011;4895;50.926;6.870;2022-08-19T04:34:30;23.67;;;14.80;;
9712;SDS011;4895;50.926;6.870;2022-08-19T04:36:56;20.60;;;16.50;;
9712;SDS011;4895;50.926;6.870;2022-08-19T04:39:24;22.80;;;17.90;;
9712;SDS011;4895;50.926;6.870;2022-08-19T04:42:11;27.23;;;19.60;;
9712;SDS011;4895;50.926;6.870;2022-08-19T04:44:56;26.43;;;17.60;;
9712;SDS011;4895;50.926;6.870;2022-08-19T04:47:21;27.67;;;20.10;;
9712;SDS011;4895;50.926;6.870;2022-08-19T04:49:47;27.73;;;19.27;;
9712;SDS011;4895;50.926;6.870;2022-08-19T04:52:13;29.07;;;19.80;;
9712;SDS011;4895;50.926;6.870;2022-08-19T04:54:38;30.33;;;21.10;;
9712;SDS011;4895;50.926;6.870;2022-08-19T04:57:03;29.37;;;19.93;;
9712;SDS011;4895;50.926;6.870;2022-08-19T04:59:31;26.47;;;20.03;;
9712;SDS011;4895;50.926;6.870;2022-08-19T05:01:58;32.27;;;21.60;;
9712;SDS011;4895;50.926;6.870;2022-08-19T05:04:23;30.73;;;21.90;;
9712;SDS011;4895;50.926;6.870;2022-08-19T05:06:49;32.93;;;23.30;;
9712;SDS011;4895;50.926;6.870;2022-08-19T05:09:14;29.37;;;20.90;;
9712;SDS011;4895;50.926;6.870;2022-08-19T05:11:40;34.10;;;24.57;;
9712;SDS011;4895;50.926;6.870;2022-08-19T05:14:06;31.77;;;21.60;;
9712;SDS011;4895;50.926;6.870;2022-08-19T05:16:32;28.63;;;21.83;;
9712;SDS011;4895;50.926;6.870;2022-08-19T05:18:57;30.77;;;24.23;;
9712;SDS011;4895;50.926;6.870;2022-08-19T05:21:41;36.80;;;26.07;;
9712;SDS011;4895;50.926;6.870;2022-08-19T05:24:26;31.53;;;23.67;;
9712;SDS011;4895;50.926;6.870;2022-08-19T05:26:52;36.77;;;25.27;;
9712;SDS011;4895;50.926;6.870;2022-08-19T05:29:21;37.37;;;26.27;;
9712;SDS011;4895;50.926;6.870;2022-08-19T05:31:48;35.90;;;26.10;;
9712;SDS011;4895;50.926;6.870;2022-08-19T05:34:14;43.67;;;27.93;;
9712;SDS011;4895;50.926;6.870;2022-08-19T05:36:42;38.40;;;26.13;;
9712;SDS011;4895;50.926;6.870;2022-08-19T05:39:10;43.50;;;31.60;;
9712;SDS011;4895;50.926;6.870;2022-08-19T05:41:41;41.83;;;28.30;;
9712;SDS011;4895;50.926;6.870;2022-08-19T05:44:11;41.97;;;29.77;;
9712;SDS011;4895;50.926;6.870;2022-08-19T05:46:37;37.33;;;26.67;;
9712;SDS011;4895;50.926;6.870;2022-08-19T05:49:04;36.77;;;27.10;;
9712;SDS011;4895;50.926;6.870;2022-08-19T05:51:31;40.20;;;27.90;;
9712;SDS011;4895;50.926;6.870;2022-08-19T05:53:57;45.97;;;33.93;;
9712;SDS011;4895;50.926;6.870;2022-08-19T05:56:22;45.43;;;33.80;;
9712;SDS011;4895;50.926;6.870;2022-08-19T05:58:48;45.93;;;32.80;;
9712;SDS011;4895;50.926;6.870;2022-08-19T06:01:14;43.83;;;30.40;;
9712;SDS011;4895;50.926;6.870;2022-08-19T06:03:42;44.57;;;28.43;;
9712;SDS011;4895;50.926;6.870;2022-08-19T06:06:08;45.77;;;33.47;;
9712;SDS011;4895;50.926;6.870;2022-08-19T06:08:35;43.30;;;30.63;;
9712;SDS011;4895;50.926;6.870;2022-08-19T06:11:18;45.73;;;29.90;;
9712;SDS011;4895;50.926;6.870;2022-08-19T06:13:45;39.40;;;30.30;;
9712;SDS011;4895;50.926;6.870;2022-08-19T06:16:12;40.87;;;28.87;;
9712;SDS011;4895;50.926;6.870;2022-08-19T06:18:45;39.83;;;28.10;;
9712;SDS011;4895;50.926;6.870;2022-08-19T06:21:10;37.17;;;27.50;;
9712;SDS011;4895;50.926;6.870;2022-08-19T06:23:36;43.30;;;29.83;;
9712;SDS011;4895;50.926;6.870;2022-08-19T06:26:01;49.53;;;33.20;;
9712;SDS011;4895;50.926;6.870;2022-08-19T06:28:26;44.47;;;30.37;;
9712;SDS011;4895;50.926;6.870;2022-08-19T06:30:51;44.90;;;29.73;;
9712;SDS011;4895;50.926;6.870;2022-08-19T06:33:17;49.40;;;33.30;;
9712;SDS011;4895;50.926;6.870;2022-08-19T06:35:42;43.33;;;31.07;;
9712;SDS011;4895;50.926;6.870;2022-08-19T06:38:08;46.37;;;32.63;;
9712;SDS011;4895;50.926;6.870;2022-08-19T06:40:34;43.47;;;30.33;;
9712;SDS011;4895;50.926;6.870;2022-08-19T06:43:01;36.73;;;28.40;;
9712;SDS011;4895;50.926;6.870;2022-08-19T06:45:27;42.20;;;28.10;;
9712;SDS011;4895;50.926;6.870;2022-08-19T06:47:52;42.53;;;26.00;;
9712;SDS011;4895;50.926;6.870;2022-08-19T06:50:21;38.43;;;26.17;;
9712;SDS011;4895;50.926;6.870;2022-08-19T06:52:48;39.17;;;26.63;;
9712;SDS011;4895;50.926;6.870;2022-08-19T06:55:13;37.30;;;26.57;;
9712;SDS011;4895;50.926;6.870;2022-08-19T06:57:39;41.33;;;29.23;;
9712;SDS011;4895;50.926;6.870;2022-08-19T07:00:04;40.07;;;27.13;;
9712;SDS011;4895;50.926;6.870;2022-08-19T07:02:30;38.27;;;27.17;;
9712;SDS011;4895;50.926;6.870;2022-08-19T07:04:55;37.60;;;24.20;;
9712;SDS011;4895;50.926;6.870;2022-08-19T07:07:23;44.30;;;28.90;;
9712;SDS011;4895;50.926;6.870;2022-08-19T07:09:49;42.37;;;27.50;;
9712;SDS011;4895;50.926;6.870;2022-08-19T07:12:15;42.53;;;30.43;;
9712;SDS011;4895;50.926;6.870;2022-08-19T07:14:41;37.10;;;27.30;;
9712;SDS011;4895;50.926;6.870;2022-08-19T07:17:07;50.37;;;30.20;;
9712;SDS011;4895;50.926;6.870;2022-08-19T07:19:35;39.27;;;24.70;;
9712;SDS011;4895;50.926;6.870;2022-08-19T07:22:01;39.27;;;26.00;;
9712;SDS011;4895;50.926;6.870;2022-08-19T07:24:28;37.33;;;26.27;;
9712;SDS011;4895;50.926;6.870;2022-08-19T07:26:54;35.77;;;24.67;;
9712;SDS011;4895;50.926;6.870;2022-08-19T07:29:22;44.83;;;29.93;;
9712;SDS011;4895;50.926;6.870;2022-08-19T07:31:48;44.10;;;29.87;;
9712;SDS011;4895;50.926;6.870;2022-08-19T07:34:14;44.33;;;28.63;;
9712;SDS011;4895;50.926;6.870;2022-08-19T07:36:40;55.57;;;36.43;;
9712;SDS011;4895;50.926;6.870;2022-08-19T07:39:08;55.63;;;34.87;;
9712;SDS011;4895;50.926;6.870;2022-08-19T07:41:36;59.43;;;34.90;;
9712;SDS011;4895;50.926;6.870;2022-08-19T07:44:02;58.13;;;37.60;;
9712;SDS011;4895;50.926;6.870;2022-08-19T07:46:31;63.10;;;39.27;;
9712;SDS011;4895;50.926;6.870;2022-08-19T07:48:58;56.73;;;37.43;;
9712;SDS011;4895;50.926;6.870;2022-08-19T07:51:23;60.87;;;39.77;;
9712;SDS011;4895;50.926;6.870;2022-08-19T07:53:49;66.30;;;40.40;;
9712;SDS011;4895;50.926;6.870;2022-08-19T07:56:16;63.63;;;39.90;;
9712;SDS011;4895;50.926;6.870;2022-08-19T07:58:44;60.73;;;38.57;;
9712;SDS011;4895;50.926;6.870;2022-08-19T08:01:11;63.00;;;41.30;;
9712;SDS011;4895;50.926;6.870;2022-08-19T08:03:39;57.27;;;36.80;;
9712;SDS011;4895;50.926;6.870;2022-08-19T08:06:23;60.23;;;37.47;;
9712;SDS011;4895;50.926;6.870;2022-08-19T08:09:08;65.83;;;41.63;;
9712;SDS011;4895;50.926;6.870;2022-08-19T08:11:41;74.07;;;43.47;;
9712;SDS011;4895;50.926;6.870;2022-08-19T08:14:09;75.20;;;43.73;;
9712;SDS011;4895;50.926;6.870;2022-08-19T08:16:36;71.63;;;42.20;;
9712;SDS011;4895;50.926;6.870;2022-08-19T08:19:04;69.40;;;42.67;;
9712;SDS011;4895;50.926;6.870;2022-08-19T08:21:30;61.60;;;40.27;;
9712;SDS011;4895;50.926;6.870;2022-08-19T08:23:56;69.77;;;41.13;;
9712;SDS011;4895;50.926;6.870;2022-08-19T08:26:22;69.27;;;41.77;;
9712;SDS011;4895;50.926;6.870;2022-08-19T08:28:48;70.07;;;41.93;;
9712;SDS011;4895;50.926;6.870;2022-08-19T08:31:13;67.40;;;41.10;;
9712;SDS011;4895;50.926;6.870;2022-08-19T08:33:39;64.73;;;38.87;;
9712;SDS011;4895;50.926;6.870;2022-08-19T08:36:07;67.07;;;42.13;;
9712;SDS011;4895;50.926;6.870;2022-08-19T08:38:33;84.10;;;42.37;;
9712;SDS011;4895;50.926;6.870;2022-08-19T08:41:11;70.07;;;41.97;;
9712;SDS011;4895;50.926;6.870;2022-08-19T08:43:45;62.97;;;39.07;;
9712;SDS011;4895;50.926;6.870;2022-08-19T08:46:13;64.97;;;39.10;;
9712;SDS011;4895;50.926;6.870;2022-08-19T08:48:52;69.23;;;41.67;;
9712;SDS011;4895;50.926;6.870;2022-08-19T08:51:32;72.27;;;43.53;;
9712;SDS011;4895;50.926;6.870;2022-08-19T08:54:00;66.93;;;39.77;;
9712;SDS011;4895;50.926;6.870;2022-08-19T08:56:27;60.97;;;40.03;;
9712;SDS011;4895;50.926;6.870;2022-08-19T09:01:32;62.30;;;38.27;;
9712;SDS011;4895;50.926;6.870;2022-08-19T09:03:57;67.37;;;39.27;;
9712;SDS011;4895;50.926;6.870;2022-08-19T09:11:48;49.03;;;30.80;;
9712;SDS011;4895;50.926;6.870;2022-08-19T09:17:03;45.73;;;29.63;;
9712;SDS011;4895;50.926;6.870;2022-08-19T09:19:32;37.23;;;24.13;;
9712;SDS011;4895;50.926;6.870;2022-08-19T09:21:59;35.60;;;23.50;;
9712;SDS011;4895;50.926;6.870;2022-08-19T09:24:25;50.77;;;30.67;;
9712;SDS011;4895;50.926;6.870;2022-08-19T09:26:51;42.80;;;27.33;;
9712;SDS011;4895;50.926;6.870;2022-08-19T09:29:16;48.50;;;31.13;;
9712;SDS011;4895;50.926;6.870;2022-08-19T09:31:41;36.63;;;26.37;;
9712;SDS011;4895;50.926;6.870;2022-08-19T09:34:06;35.50;;;23.47;;
9712;SDS011;4895;50.926;6.870;2022-08-19T09:36:33;39.73;;;25.03;;
9712;SDS011;4895;50.926;6.870;2022-08-19T09:39:02;39.03;;;26.67;;
9712;SDS011;4895;50.926;6.870;2022-08-19T09:41:28;32.60;;;23.83;;
9712;SDS011;4895;50.926;6.870;2022-08-19T09:43:54;38.53;;;25.50;;
9712;SDS011;4895;50.926;6.870;2022-08-19T09:46:21;44.50;;;26.17;;
9712;SDS011;4895;50.926;6.870;2022-08-19T09:48:47;29.27;;;19.43;;
9712;SDS011;4895;50.926;6.870;2022-08-19T09:51:15;33.30;;;21.23;;
9712;SDS011;4895;50.926;6.870;2022-08-19T09:53:42;27.03;;;18.00;;
9712;SDS011;4895;50.926;6.870;2022-08-19T09:56:09;22.63;;;17.13;;
9712;SDS011;4895;50.926;6.870;2022-08-19T09:58:35;25.03;;;17.53;;
9712;SDS011;4895;50.926;6.870;2022-08-19T10:01:01;21.37;;;14.73;;
9712;SDS011;4895;50.926;6.870;2022-08-19T10:03:28;27.13;;;18.97;;
9712;SDS011;4895;50.926;6.870;2022-08-19T10:05:54;20.13;;;15.83;;
9712;SDS011;4895;50.926;6.870;2022-08-19T10:08:21;20.13;;;15.40;;
9712;SDS011;4895;50.926;6.870;2022-08-19T10:10:51;19.90;;;12.63;;
9712;SDS011;4895;50.926;6.870;2022-08-19T10:13:18;20.50;;;14.20;;
9712;SDS011;4895;50.926;6.870;2022-08-19T10:15:47;18.33;;;13.20;;
9712;SDS011;4895;50.926;6.870;2022-08-19T10:18:15;16.13;;;12.80;;
9712;SDS011;4895;50.926;6.870;2022-08-19T10:20:42;14.63;;;12.17;;
9712;SDS011;4895;50.926;6.870;2022-08-19T10:23:10;18.67;;;12.20;;
9712;SDS011;4895;50.926;6.870;2022-08-19T10:25:35;16.73;;;10.30;;
9712;SDS011;4895;50.926;6.870;2022-08-19T10:28:01;16.53;;;12.17;;
9712;SDS011;4895;50.926;6.870;2022-08-19T10:30:26;16.27;;;11.83;;
9712;SDS011;4895;50.926;6.870;2022-08-19T10:32:52;20.23;;;13.23;;
9712;SDS011;4895;50.926;6.870;2022-08-19T10:35:18;17.83;;;14.80;;
9712;SDS011;4895;50.926;6.870;2022-08-19T10:37:43;16.77;;;12.70;;
9712;SDS011;4895;50.926;6.870;2022-08-19T10:40:08;19.73;;;14.40;;
9712;SDS011;4895;50.926;6.870;2022-08-19T10:42:36;21.37;;;15.90;;
9712;SDS011;4895;50.926;6.870;2022-08-19T10:45:02;21.90;;;16.67;;
9712;SDS011;4895;50.926;6.870;2022-08-19T10:47:28;22.33;;;16.20;;
9712;SDS011;4895;50.926;6.870;2022-08-19T10:49:54;30.23;;;18.57;;
9712;SDS011;4895;50.926;6.870;2022-08-19T10:52:39;31.07;;;18.03;;
9712;SDS011;4895;50.926;6.870;2022-08-19T10:55:05;29.17;;;19.00;;
9712;SDS011;4895;50.926;6.870;2022-08-19T10:57:50;27.37;;;18.37;;
9712;SDS011;4895;50.926;6.870;2022-08-19T11:00:17;26.27;;;15.80;;
9712;SDS011;4895;50.926;6.870;2022-08-19T11:02:43;24.63;;;18.43;;
9712;SDS011;4895;50.926;6.870;2022-08-19T11:05:08;22.83;;;17.03;;
9712;SDS011;4895;50.926;6.870;2022-08-19T11:07:40;18.17;;;12.87;;
9712;SDS011;4895;50.926;6.870;2022-08-19T11:10:06;18.13;;;12.90;;
9712;SDS011;4895;50.926;6.870;2022-08-19T11:12:33;17.23;;;12.20;;
9712;SDS011;4895;50.926;6.870;2022-08-19T11:14:58;18.50;;;12.77;;
9712;SDS011;4895;50.926;6.870;2022-08-19T11:17:24;18.13;;;12.33;;
9712;SDS011;4895;50.926;6.870;2022-08-19T11:19:49;13.47;;;11.50;;
9712;SDS011;4895;50.926;6.870;2022-08-19T11:22:15;14.87;;;11.40;;
9712;SDS011;4895;50.926;6.870;2022-08-19T11:24:40;22.30;;;14.77;;
9712;SDS011;4895;50.926;6.870;2022-08-19T11:27:06;19.43;;;12.87;;
9712;SDS011;4895;50.926;6.870;2022-08-19T11:29:34;16.50;;;13.90;;
9712;SDS011;4895;50.926;6.870;2022-08-19T11:32:03;16.93;;;13.97;;
9712;SDS011;4895;50.926;6.870;2022-08-19T11:34:30;15.87;;;13.33;;
9712;SDS011;4895;50.926;6.870;2022-08-19T11:36:56;17.20;;;12.37;;
9712;SDS011;4895;50.926;6.870;2022-08-19T11:39:25;15.13;;;11.63;;
9712;SDS011;4895;50.926;6.870;2022-08-19T11:41:51;13.87;;;11.83;;
9712;SDS011;4895;50.926;6.870;2022-08-19T11:44:17;19.60;;;14.50;;
9712;SDS011;4895;50.926;6.870;2022-08-19T11:46:43;17.70;;;13.80;;
9712;SDS011;4895;50.926;6.870;2022-08-19T11:49:12;19.60;;;12.77;;
9712;SDS011;4895;50.926;6.870;2022-08-19T11:51:39;16.33;;;11.63;;
9712;SDS011;4895;50.926;6.870;2022-08-19T11:54:06;18.07;;;14.03;;
9712;SDS011;4895;50.926;6.870;2022-08-19T11:56:32;18.90;;;11.90;;
9712;SDS011;4895;50.926;6.870;2022-08-19T11:58:57;16.10;;;10.93;;
9712;SDS011;4895;50.926;6.870;2022-08-19T12:01:23;17.03;;;11.23;;
9712;SDS011;4895;50.926;6.870;2022-08-19T12:03:51;16.83;;;11.17;;
9712;SDS011;4895;50.926;6.870;2022-08-19T12:06:19;14.27;;;10.50;;
9712;SDS011;4895;50.926;6.870;2022-08-19T12:08:50;16.90;;;10.20;;
9712;SDS011;4895;50.926;6.870;2022-08-19T12:11:16;15.90;;;10.33;;
9712;SDS011;4895;50.926;6.870;2022-08-19T12:13:41;9.83;;;8.83;;
9712;SDS011;4895;50.926;6.870;2022-08-19T12:16:10;12.20;;;10.17;;
9712;SDS011;4895;50.926;6.870;2022-08-19T12:18:37;13.00;;;9.70;;
9712;SDS011;4895;50.926;6.870;2022-08-19T12:21:03;12.20;;;9.37;;
9712;SDS011;4895;50.926;6.870;2022-08-19T12:23:29;12.33;;;8.93;;
9712;SDS011;4895;50.926;6.870;2022-08-19T12:25:54;16.10;;;12.37;;
9712;SDS011;4895;50.926;6.870;2022-08-19T12:28:22;21.10;;;12.73;;
9712;SDS011;4895;50.926;6.870;2022-08-19T12:30:48;17.33;;;12.33;;
9712;SDS011;4895;50.926;6.870;2022-08-19T12:33:16;15.80;;;10.77;;
9712;SDS011;4895;50.926;6.870;2022-08-19T12:35:43;15.70;;;12.03;;
9712;SDS011;4895;50.926;6.870;2022-08-19T12:38:11;16.67;;;10.77;;
9712;SDS011;4895;50.926;6.870;2022-08-19T12:40:37;16.53;;;10.63;;
9712;SDS011;4895;50.926;6.870;2022-08-19T12:43:04;13.73;;;10.87;;
9712;SDS011;4895;50.926;6.870;2022-08-19T12:45:30;16.47;;;10.73;;
9712;SDS011;4895;50.926;6.870;2022-08-19T12:47:55;21.10;;;12.10;;
9712;SDS011;4895;50.926;6.870;2022-08-19T12:50:20;13.93;;;9.93;;
9712;SDS011;4895;50.926;6.870;2022-08-19T12:52:46;16.00;;;11.30;;
9712;SDS011;4895;50.926;6.870;2022-08-19T12:55:12;19.00;;;11.50;;
9712;SDS011;4895;50.926;6.870;2022-08-19T12:57:37;15.17;;;10.00;;
9712;SDS011;4895;50.926;6.870;2022-08-19T13:02:40;14.70;;;10.73;;
9712;SDS011;4895;50.926;6.870;2022-08-19T13:05:10;13.07;;;9.73;;
9712;SDS011;4895;50.926;6.870;2022-08-19T13:07:38;10.80;;;8.60;;
9712;SDS011;4895;50.926;6.870;2022-08-19T13:10:05;10.90;;;7.90;;
9712;SDS011;4895;50.926;6.870;2022-08-19T13:12:32;14.60;;;8.47;;
9712;SDS011;4895;50.926;6.870;2022-08-19T13:14:57;15.33;;;9.60;;
9712;SDS011;4895;50.926;6.870;2022-08-19T13:17:23;11.73;;;8.60;;
9712;SDS011;4895;50.926;6.870;2022-08-19T13:19:48;15.73;;;9.90;;
9712;SDS011;4895;50.926;6.870;2022-08-19T13:22:13;14.17;;;8.60;;
9712;SDS011;4895;50.926;6.870;2022-08-19T13:24:39;11.10;;;8.00;;
9712;SDS011;4895;50.926;6.870;2022-08-19T13:27:04;12.17;;;7.70;;
9712;SDS011;4895;50.926;6.870;2022-08-19T13:29:29;13.00;;;8.33;;
9712;SDS011;4895;50.926;6.870;2022-08-19T13:32:14;15.90;;;8.40;;
9712;SDS011;4895;50.926;6.870;2022-08-19T13:34:57;12.63;;;8.83;;
9712;SDS011;4895;50.926;6.870;2022-08-19T13:37:23;14.40;;;8.73;;
9712;SDS011;4895;50.926;6.870;2022-08-19T13:40:06;12.87;;;8.97;;
9712;SDS011;4895;50.926;6.870;2022-08-19T13:42:41;15.00;;;9.07;;
9712;SDS011;4895;50.926;6.870;2022-08-19T13:45:08;17.33;;;8.30;;
9712;SDS011;4895;50.926;6.870;2022-08-19T13:47:35;15.10;;;8.90;;
9712;SDS011;4895;50.926;6.870;2022-08-19T13:50:04;10.43;;;7.90;;
9712;SDS011;4895;50.926;6.870;2022-08-19T13:52:29;12.57;;;8.70;;
9712;SDS011;4895;50.926;6.870;2022-08-19T13:54:55;15.90;;;8.00;;
9712;SDS011;4895;50.926;6.870;2022-08-19T13:57:21;9.40;;;6.90;;
9712;SDS011;4895;50.926;6.870;2022-08-19T13:59:47;14.93;;;8.30;;
9712;SDS011;4895;50.926;6.870;2022-08-19T14:02:13;12.90;;;7.87;;
9712;SDS011;4895;50.926;6.870;2022-08-19T14:04:38;17.87;;;7.67;;
9712;SDS011;4895;50.926;6.870;2022-08-19T14:07:03;11.90;;;8.33;;
9712;SDS011;4895;50.926;6.870;2022-08-19T14:09:29;14.17;;;8.03;;
9712;SDS011;4895;50.926;6.870;2022-08-19T14:11:55;12.57;;;7.85;;
9712;SDS011;4895;50.926;6.870;2022-08-19T14:14:20;8.50;;;7.40;;
9712;SDS011;4895;50.926;6.870;2022-08-19T14:16:46;15.33;;;8.90;;
9712;SDS011;4895;50.926;6.870;2022-08-19T14:19:11;10.60;;;7.63;;
9712;SDS011;4895;50.926;6.870;2022-08-19T14:21:37;12.77;;;8.70;;
9712;SDS011;4895;50.926;6.870;2022-08-19T14:24:02;10.03;;;7.13;;
9712;SDS011;4895;50.926;6.870;2022-08-19T14:26:27;12.53;;;8.27;;
9712;SDS011;4895;50.926;6.870;2022-08-19T14:28:53;10.10;;;7.53;;
9712;SDS011;4895;50.926;6.870;2022-08-19T14:31:22;13.03;;;7.07;;
9712;SDS011;4895;50.926;6.870;2022-08-19T14:33:48;12.50;;;7.50;;
9712;SDS011;4895;50.926;6.870;2022-08-19T14:36:15;9.17;;;6.70;;
9712;SDS011;4895;50.926;6.870;2022-08-19T14:38:41;6.97;;;6.23;;
9712;SDS011;4895;50.926;6.870;2022-08-19T14:41:11;7.43;;;5.33;;
9712;SDS011;4895;50.926;6.870;2022-08-19T14:43:46;7.30;;;5.53;;
9712;SDS011;4895;50.926;6.870;2022-08-19T14:46:15;6.10;;;5.00;;
9712;SDS011;4895;50.926;6.870;2022-08-19T14:48:42;6.37;;;4.70;;
9712;SDS011;4895;50.926;6.870;2022-08-19T14:51:08;6.40;;;4.80;;
9712;SDS011;4895;50.926;6.870;2022-08-19T14:53:33;9.83;;;5.40;;
9712;SDS011;4895;50.926;6.870;2022-08-19T14:55:59;11.37;;;5.20;;
9712;SDS011;4895;50.926;6.870;2022-08-19T14:58:25;7.90;;;5.13;;
9712;SDS011;4895;50.926;6.870;2022-08-19T15:00:51;7.83;;;4.63;;
9712;SDS011;4895;50.926;6.870;2022-08-19T15:03:16;11.83;;;4.10;;
9712;SDS011;4895;50.926;6.870;2022-08-19T15:05:42;7.57;;;4.80;;
9712;SDS011;4895;50.926;6.870;2022-08-19T15:08:07;10.70;;;4.50;;
9712;SDS011;4895;50.926;6.870;2022-08-19T15:10:32;7.83;;;4.20;;